TUN weather

Tunis Carthage International Airport
Tunis, Tunis Governorate, Tunisia

Public forecast

Using degrees Celsius for public forecast. Weather courtesy of forecast.io.

METAR (pilot weather report)

Retrieved 2018/04/24 09:30 UTC (19 minutes ago):

DTTA 240930Z 12007KT 060V160 CAVOK 27/08 Q1018 NOSIG

TAF (pilot weather forecast)

Retrieved 2018/04/24 06:45 UTC (3 hours ago):

TAF DTTA 240545Z 2406/2506 VRB03KT CAVOK BECMG 2408??410 14012KT 9999 FEW026 TEMPO 2412/2421 16015G25KT